sensor_id;sensor_type;location;lat;lon;timestamp;P1;P2;P0
55754;PMS5003;41674;52.290;-1.474;2023-12-07T00:01:16;23;21;
55754;PMS5003;41674;52.290;-1.474;2023-12-07T00:03:46;20;18;
55754;PMS5003;41674;52.290;-1.474;2023-12-07T00:06:15;20;19;
55754;PMS5003;41674;52.290;-1.474;2023-12-07T00:08:45;21;21;
55754;PMS5003;41674;52.290;-1.474;2023-12-07T00:11:14;27;20;
55754;PMS5003;41674;52.290;-1.474;2023-12-07T00:13:43;18;17;
55754;PMS5003;41674;52.290;-1.474;2023-12-07T00:16:13;21;18;
55754;PMS5003;41674;52.290;-1.474;2023-12-07T00:18:42;22;18;
55754;PMS5003;41674;52.290;-1.474;2023-12-07T00:21:11;19;18;
55754;PMS5003;41674;52.290;-1.474;2023-12-07T00:23:40;22;19;
55754;PMS5003;41674;52.290;-1.474;2023-12-07T00:26:10;23;18;
55754;PMS5003;41674;52.290;-1.474;2023-12-07T00:28:39;24;21;
55754;PMS5003;41674;52.290;-1.474;2023-12-07T00:31:09;20;19;
55754;PMS5003;41674;52.290;-1.474;2023-12-07T00:33:38;21;20;
55754;PMS5003;41674;52.290;-1.474;2023-12-07T00:36:08;24;20;
55754;PMS5003;41674;52.290;-1.474;2023-12-07T00:38:37;21;16;
55754;PMS5003;41674;52.290;-1.474;2023-12-07T00:41:06;16;15;
55754;PMS5003;41674;52.290;-1.474;2023-12-07T00:43:36;21;18;
55754;PMS5003;41674;52.290;-1.474;2023-12-07T00:46:06;22;19;
55754;PMS5003;41674;52.290;-1.474;2023-12-07T00:48:35;21;18;
55754;PMS5003;41674;52.290;-1.474;2023-12-07T00:51:04;23;20;
55754;PMS5003;41674;52.290;-1.474;2023-12-07T00:53:34;19;19;
55754;PMS5003;41674;52.290;-1.474;2023-12-07T00:56:03;19;18;
55754;PMS5003;41674;52.290;-1.474;2023-12-07T00:58:32;22;21;
55754;PMS5003;41674;52.290;-1.474;2023-12-07T01:01:02;17;17;
55754;PMS5003;41674;52.290;-1.474;2023-12-07T01:03:31;28;24;
55754;PMS5003;41674;52.290;-1.474;2023-12-07T01:06:00;26;22;
55754;PMS5003;41674;52.290;-1.474;2023-12-07T01:08:30;16;16;
55754;PMS5003;41674;52.290;-1.474;2023-12-07T01:10:59;21;19;
55754;PMS5003;41674;52.290;-1.474;2023-12-07T01:13:29;25;21;
55754;PMS5003;41674;52.290;-1.474;2023-12-07T01:15:59;24;22;
55754;PMS5003;41674;52.290;-1.474;2023-12-07T01:18:28;23;23;
55754;PMS5003;41674;52.290;-1.474;2023-12-07T01:20:57;18;16;
55754;PMS5003;41674;52.290;-1.474;2023-12-07T01:23:27;20;15;
55754;PMS5003;41674;52.290;-1.474;2023-12-07T01:25:56;19;19;
55754;PMS5003;41674;52.290;-1.474;2023-12-07T01:28:25;23;19;
55754;PMS5003;41674;52.290;-1.474;2023-12-07T01:30:55;20;18;
55754;PMS5003;41674;52.290;-1.474;2023-12-07T01:33:24;21;17;
55754;PMS5003;41674;52.290;-1.474;2023-12-07T01:35:54;18;16;
55754;PMS5003;41674;52.290;-1.474;2023-12-07T01:38:23;22;19;
55754;PMS5003;41674;52.290;-1.474;2023-12-07T01:40:52;23;22;
55754;PMS5003;41674;52.290;-1.474;2023-12-07T01:43:22;15;15;
55754;PMS5003;41674;52.290;-1.474;2023-12-07T01:45:51;21;18;
55754;PMS5003;41674;52.290;-1.474;2023-12-07T01:48:20;23;19;
55754;PMS5003;41674;52.290;-1.474;2023-12-07T01:50:49;22;19;
55754;PMS5003;41674;52.290;-1.474;2023-12-07T01:53:19;16;16;
55754;PMS5003;41674;52.290;-1.474;2023-12-07T01:55:48;15;15;
55754;PMS5003;41674;52.290;-1.474;2023-12-07T01:58:18;19;17;
55754;PMS5003;41674;52.290;-1.474;2023-12-07T02:00:47;19;17;
55754;PMS5003;41674;52.290;-1.474;2023-12-07T02:03:17;15;15;
55754;PMS5003;41674;52.290;-1.474;2023-12-07T02:05:47;17;14;
55754;PMS5003;41674;52.290;-1.474;2023-12-07T02:08:15;18;15;
55754;PMS5003;41674;52.290;-1.474;2023-12-07T02:10:45;22;18;
55754;PMS5003;41674;52.290;-1.474;2023-12-07T02:13:14;16;15;
55754;PMS5003;41674;52.290;-1.474;2023-12-07T02:15:44;17;15;
55754;PMS5003;41674;52.290;-1.474;2023-12-07T02:18:14;13;13;
55754;PMS5003;41674;52.290;-1.474;2023-12-07T02:20:44;17;15;
55754;PMS5003;41674;52.290;-1.474;2023-12-07T02:23:12;14;14;
55754;PMS5003;41674;52.290;-1.474;2023-12-07T02:25:44;19;17;
55754;PMS5003;41674;52.290;-1.474;2023-12-07T02:28:11;17;15;
55754;PMS5003;41674;52.290;-1.474;2023-12-07T02:30:40;22;15;
55754;PMS5003;41674;52.290;-1.474;2023-12-07T02:33:10;15;15;
55754;PMS5003;41674;52.290;-1.474;2023-12-07T02:35:40;12;11;
55754;PMS5003;41674;52.290;-1.474;2023-12-07T02:40:38;21;14;
55754;PMS5003;41674;52.290;-1.474;2023-12-07T02:43:07;13;13;
55754;PMS5003;41674;52.290;-1.474;2023-12-07T02:45:37;15;15;
55754;PMS5003;41674;52.290;-1.474;2023-12-07T02:48:06;17;17;
55754;PMS5003;41674;52.290;-1.474;2023-12-07T02:50:36;16;13;
55754;PMS5003;41674;52.290;-1.474;2023-12-07T02:53:05;17;14;
55754;PMS5003;41674;52.290;-1.474;2023-12-07T02:55:35;13;11;
55754;PMS5003;41674;52.290;-1.474;2023-12-07T02:58:05;15;14;
55754;PMS5003;41674;52.290;-1.474;2023-12-07T03:00:34;13;12;
55754;PMS5003;41674;52.290;-1.474;2023-12-07T03:03:04;13;11;
55754;PMS5003;41674;52.290;-1.474;2023-12-07T03:05:34;13;12;
55754;PMS5003;41674;52.290;-1.474;2023-12-07T03:08:03;14;14;
55754;PMS5003;41674;52.290;-1.474;2023-12-07T03:10:32;15;13;
55754;PMS5003;41674;52.290;-1.474;2023-12-07T03:13:02;13;13;
55754;PMS5003;41674;52.290;-1.474;2023-12-07T03:15:32;16;14;
55754;PMS5003;41674;52.290;-1.474;2023-12-07T03:18:01;16;13;
55754;PMS5003;41674;52.290;-1.474;2023-12-07T03:20:31;15;11;
55754;PMS5003;41674;52.290;-1.474;2023-12-07T03:23:00;13;11;
55754;PMS5003;41674;52.290;-1.474;2023-12-07T03:25:29;12;11;
55754;PMS5003;41674;52.290;-1.474;2023-12-07T03:27:59;16;14;
55754;PMS5003;41674;52.290;-1.474;2023-12-07T03:30:28;16;13;
55754;PMS5003;41674;52.290;-1.474;2023-12-07T03:32:58;13;10;
55754;PMS5003;41674;52.290;-1.474;2023-12-07T03:35:28;14;11;
55754;PMS5003;41674;52.290;-1.474;2023-12-07T03:37:58;13;13;
55754;PMS5003;41674;52.290;-1.474;2023-12-07T03:40:27;15;14;
55754;PMS5003;41674;52.290;-1.474;2023-12-07T03:42:56;15;13;
55754;PMS5003;41674;52.290;-1.474;2023-12-07T03:45:26;13;10;
55754;PMS5003;41674;52.290;-1.474;2023-12-07T03:47:56;13;11;
55754;PMS5003;41674;52.290;-1.474;2023-12-07T03:50:25;12;10;
55754;PMS5003;41674;52.290;-1.474;2023-12-07T03:52:55;11;11;
55754;PMS5003;41674;52.290;-1.474;2023-12-07T03:55:24;15;10;
55754;PMS5003;41674;52.290;-1.474;2023-12-07T03:57:54;14;12;
55754;PMS5003;41674;52.290;-1.474;2023-12-07T04:00:24;13;12;
55754;PMS5003;41674;52.290;-1.474;2023-12-07T04:02:53;13;12;
55754;PMS5003;41674;52.290;-1.474;2023-12-07T04:05:23;10;8;
55754;PMS5003;41674;52.290;-1.474;2023-12-07T04:07:53;11;11;
55754;PMS5003;41674;52.290;-1.474;2023-12-07T04:10:22;10;10;
55754;PMS5003;41674;52.290;-1.474;2023-12-07T04:12:52;12;11;
55754;PMS5003;41674;52.290;-1.474;2023-12-07T04:15:22;10;9;
55754;PMS5003;41674;52.290;-1.474;2023-12-07T04:17:51;13;11;
55754;PMS5003;41674;52.290;-1.474;2023-12-07T04:20:20;12;10;
55754;PMS5003;41674;52.290;-1.474;2023-12-07T04:22:50;11;10;
55754;PMS5003;41674;52.290;-1.474;2023-12-07T04:25:20;12;12;
55754;PMS5003;41674;52.290;-1.474;2023-12-07T04:27:49;11;11;
55754;PMS5003;41674;52.290;-1.474;2023-12-07T04:30:19;10;10;
55754;PMS5003;41674;52.290;-1.474;2023-12-07T04:32:48;15;12;
55754;PMS5003;41674;52.290;-1.474;2023-12-07T04:35:18;11;11;
55754;PMS5003;41674;52.290;-1.474;2023-12-07T04:37:47;14;11;
55754;PMS5003;41674;52.290;-1.474;2023-12-07T04:40:17;15;12;
55754;PMS5003;41674;52.290;-1.474;2023-12-07T04:42:46;13;13;
55754;PMS5003;41674;52.290;-1.474;2023-12-07T04:45:17;14;13;
55754;PMS5003;41674;52.290;-1.474;2023-12-07T04:47:45;17;14;
55754;PMS5003;41674;52.290;-1.474;2023-12-07T04:50:15;14;12;
55754;PMS5003;41674;52.290;-1.474;2023-12-07T04:52:44;13;12;
55754;PMS5003;41674;52.290;-1.474;2023-12-07T04:55:14;13;12;
55754;PMS5003;41674;52.290;-1.474;2023-12-07T04:57:43;16;14;
55754;PMS5003;41674;52.290;-1.474;2023-12-07T05:00:13;16;14;
55754;PMS5003;41674;52.290;-1.474;2023-12-07T05:02:43;14;11;
55754;PMS5003;41674;52.290;-1.474;2023-12-07T05:05:12;17;14;
55754;PMS5003;41674;52.290;-1.474;2023-12-07T05:07:41;18;15;
55754;PMS5003;41674;52.290;-1.474;2023-12-07T05:10:10;12;12;
55754;PMS5003;41674;52.290;-1.474;2023-12-07T05:12:40;18;15;
55754;PMS5003;41674;52.290;-1.474;2023-12-07T05:15:10;13;13;
55754;PMS5003;41674;52.290;-1.474;2023-12-07T05:17:39;13;11;
55754;PMS5003;41674;52.290;-1.474;2023-12-07T05:20:09;17;13;
55754;PMS5003;41674;52.290;-1.474;2023-12-07T05:22:38;14;10;
55754;PMS5003;41674;52.290;-1.474;2023-12-07T05:25:08;16;14;
55754;PMS5003;41674;52.290;-1.474;2023-12-07T05:27:37;13;12;
55754;PMS5003;41674;52.290;-1.474;2023-12-07T05:30:07;13;13;
55754;PMS5003;41674;52.290;-1.474;2023-12-07T05:32:37;15;14;
55754;PMS5003;41674;52.290;-1.474;2023-12-07T05:35:07;13;12;
55754;PMS5003;41674;52.290;-1.474;2023-12-07T05:37:36;14;14;
55754;PMS5003;41674;52.290;-1.474;2023-12-07T05:40:06;16;14;
55754;PMS5003;41674;52.290;-1.474;2023-12-07T05:42:35;14;13;
55754;PMS5003;41674;52.290;-1.474;2023-12-07T05:45:05;14;11;
55754;PMS5003;41674;52.290;-1.474;2023-12-07T05:47:34;17;13;
55754;PMS5003;41674;52.290;-1.474;2023-12-07T05:50:03;13;11;
55754;PMS5003;41674;52.290;-1.474;2023-12-07T05:52:32;15;13;
55754;PMS5003;41674;52.290;-1.474;2023-12-07T05:55:02;15;11;
55754;PMS5003;41674;52.290;-1.474;2023-12-07T05:57:31;18;13;
55754;PMS5003;41674;52.290;-1.474;2023-12-07T06:00:01;13;13;
55754;PMS5003;41674;52.290;-1.474;2023-12-07T06:02:30;15;11;
55754;PMS5003;41674;52.290;-1.474;2023-12-07T06:05:00;14;11;
55754;PMS5003;41674;52.290;-1.474;2023-12-07T06:07:29;13;13;
55754;PMS5003;41674;52.290;-1.474;2023-12-07T06:09:59;14;14;
55754;PMS5003;41674;52.290;-1.474;2023-12-07T06:12:28;12;11;
55754;PMS5003;41674;52.290;-1.474;2023-12-07T06:14:57;16;15;
55754;PMS5003;41674;52.290;-1.474;2023-12-07T06:17:27;16;14;
55754;PMS5003;41674;52.290;-1.474;2023-12-07T06:19:56;16;14;
55754;PMS5003;41674;52.290;-1.474;2023-12-07T06:22:26;20;17;
55754;PMS5003;41674;52.290;-1.474;2023-12-07T06:24:55;16;14;
55754;PMS5003;41674;52.290;-1.474;2023-12-07T06:27:25;15;12;
55754;PMS5003;41674;52.290;-1.474;2023-12-07T06:29:54;14;13;
55754;PMS5003;41674;52.290;-1.474;2023-12-07T06:32:24;14;14;
55754;PMS5003;41674;52.290;-1.474;2023-12-07T06:34:53;17;14;
55754;PMS5003;41674;52.290;-1.474;2023-12-07T06:37:23;13;13;
55754;PMS5003;41674;52.290;-1.474;2023-12-07T06:39:52;16;15;
55754;PMS5003;41674;52.290;-1.474;2023-12-07T06:42:22;16;13;
55754;PMS5003;41674;52.290;-1.474;2023-12-07T06:44:52;20;16;
55754;PMS5003;41674;52.290;-1.474;2023-12-07T06:47:22;14;14;
55754;PMS5003;41674;52.290;-1.474;2023-12-07T06:49:51;15;14;
55754;PMS5003;41674;52.290;-1.474;2023-12-07T06:52:20;15;13;
55754;PMS5003;41674;52.290;-1.474;2023-12-07T06:54:50;13;12;
55754;PMS5003;41674;52.290;-1.474;2023-12-07T06:57:20;16;15;
55754;PMS5003;41674;52.290;-1.474;2023-12-07T06:59:49;20;16;
55754;PMS5003;41674;52.290;-1.474;2023-12-07T07:02:18;13;12;
55754;PMS5003;41674;52.290;-1.474;2023-12-07T07:04:48;15;14;
55754;PMS5003;41674;52.290;-1.474;2023-12-07T07:07:17;14;14;
55754;PMS5003;41674;52.290;-1.474;2023-12-07T07:09:47;15;13;
55754;PMS5003;41674;52.290;-1.474;2023-12-07T07:12:16;16;13;
55754;PMS5003;41674;52.290;-1.474;2023-12-07T07:14:46;13;12;
55754;PMS5003;41674;52.290;-1.474;2023-12-07T07:17:15;13;11;
55754;PMS5003;41674;52.290;-1.474;2023-12-07T07:19:44;14;13;
55754;PMS5003;41674;52.290;-1.474;2023-12-07T07:22:14;16;14;
55754;PMS5003;41674;52.290;-1.474;2023-12-07T07:24:44;12;10;
55754;PMS5003;41674;52.290;-1.474;2023-12-07T07:27:13;15;12;
55754;PMS5003;41674;52.290;-1.474;2023-12-07T07:29:43;14;12;
55754;PMS5003;41674;52.290;-1.474;2023-12-07T07:32:12;13;12;
55754;PMS5003;41674;52.290;-1.474;2023-12-07T07:34:42;16;14;
55754;PMS5003;41674;52.290;-1.474;2023-12-07T07:37:11;15;13;
55754;PMS5003;41674;52.290;-1.474;2023-12-07T07:39:41;13;13;
55754;PMS5003;41674;52.290;-1.474;2023-12-07T07:42:10;12;12;
55754;PMS5003;41674;52.290;-1.474;2023-12-07T07:44:39;15;12;
55754;PMS5003;41674;52.290;-1.474;2023-12-07T07:47:09;16;14;
55754;PMS5003;41674;52.290;-1.474;2023-12-07T07:49:38;17;15;
55754;PMS5003;41674;52.290;-1.474;2023-12-07T07:52:08;13;13;
55754;PMS5003;41674;52.290;-1.474;2023-12-07T07:54:37;14;13;
55754;PMS5003;41674;52.290;-1.474;2023-12-07T07:57:06;13;10;
55754;PMS5003;41674;52.290;-1.474;2023-12-07T07:59:36;16;12;
55754;PMS5003;41674;52.290;-1.474;2023-12-07T08:02:05;14;14;
55754;PMS5003;41674;52.290;-1.474;2023-12-07T08:04:35;14;13;
55754;PMS5003;41674;52.290;-1.474;2023-12-07T08:07:05;14;14;
55754;PMS5003;41674;52.290;-1.474;2023-12-07T08:09:34;12;10;
55754;PMS5003;41674;52.290;-1.474;2023-12-07T08:12:03;16;11;
55754;PMS5003;41674;52.290;-1.474;2023-12-07T08:14:33;13;12;
55754;PMS5003;41674;52.290;-1.474;2023-12-07T08:17:02;14;13;
55754;PMS5003;41674;52.290;-1.474;2023-12-07T08:19:31;15;14;
55754;PMS5003;41674;52.290;-1.474;2023-12-07T08:22:01;15;11;
55754;PMS5003;41674;52.290;-1.474;2023-12-07T08:24:30;18;14;
55754;PMS5003;41674;52.290;-1.474;2023-12-07T08:27:00;15;13;
55754;PMS5003;41674;52.290;-1.474;2023-12-07T08:29:29;15;12;
55754;PMS5003;41674;52.290;-1.474;2023-12-07T08:31:59;10;10;
55754;PMS5003;41674;52.290;-1.474;2023-12-07T08:34:29;12;12;
55754;PMS5003;41674;52.290;-1.474;2023-12-07T08:36:58;15;14;
55754;PMS5003;41674;52.290;-1.474;2023-12-07T08:39:27;18;14;
55754;PMS5003;41674;52.290;-1.474;2023-12-07T08:41:57;15;14;
55754;PMS5003;41674;52.290;-1.474;2023-12-07T08:44:27;15;14;
55754;PMS5003;41674;52.290;-1.474;2023-12-07T08:46:56;12;10;
55754;PMS5003;41674;52.290;-1.474;2023-12-07T08:49:26;15;13;
55754;PMS5003;41674;52.290;-1.474;2023-12-07T08:51:55;11;11;
55754;PMS5003;41674;52.290;-1.474;2023-12-07T08:54:25;13;11;
55754;PMS5003;41674;52.290;-1.474;2023-12-07T08:56:55;16;12;
55754;PMS5003;41674;52.290;-1.474;2023-12-07T08:59:24;15;15;
55754;PMS5003;41674;52.290;-1.474;2023-12-07T09:01:53;14;12;
55754;PMS5003;41674;52.290;-1.474;2023-12-07T09:04:22;19;16;
55754;PMS5003;41674;52.290;-1.474;2023-12-07T09:06:52;12;10;
55754;PMS5003;41674;52.290;-1.474;2023-12-07T09:09:22;9;9;
55754;PMS5003;41674;52.290;-1.474;2023-12-07T09:11:51;15;11;
55754;PMS5003;41674;52.290;-1.474;2023-12-07T09:14:21;10;9;
55754;PMS5003;41674;52.290;-1.474;2023-12-07T09:16:51;10;10;
55754;PMS5003;41674;52.290;-1.474;2023-12-07T09:19:20;12;12;
55754;PMS5003;41674;52.290;-1.474;2023-12-07T09:21:50;9;9;
55754;PMS5003;41674;52.290;-1.474;2023-12-07T09:24:20;10;9;
55754;PMS5003;41674;52.290;-1.474;2023-12-07T09:26:49;10;10;
55754;PMS5003;41674;52.290;-1.474;2023-12-07T09:29:19;9;8;
55754;PMS5003;41674;52.290;-1.474;2023-12-07T09:31:49;9;8;
55754;PMS5003;41674;52.290;-1.474;2023-12-07T09:34:19;11;10;
55754;PMS5003;41674;52.290;-1.474;2023-12-07T09:36:48;8;7;
55754;PMS5003;41674;52.290;-1.474;2023-12-07T09:39:17;9;9;
55754;PMS5003;41674;52.290;-1.474;2023-12-07T09:41:47;6;6;
55754;PMS5003;41674;52.290;-1.474;2023-12-07T09:44:17;11;10;
55754;PMS5003;41674;52.290;-1.474;2023-12-07T09:46:47;6;6;
55754;PMS5003;41674;52.290;-1.474;2023-12-07T09:49:17;8;6;
55754;PMS5003;41674;52.290;-1.474;2023-12-07T09:51:46;9;8;
55754;PMS5003;41674;52.290;-1.474;2023-12-07T09:54:16;8;6;
55754;PMS5003;41674;52.290;-1.474;2023-12-07T09:56:45;9;8;
55754;PMS5003;41674;52.290;-1.474;2023-12-07T09:59:15;8;8;
55754;PMS5003;41674;52.290;-1.474;2023-12-07T10:01:45;10;9;
55754;PMS5003;41674;52.290;-1.474;2023-12-07T10:04:16;11;9;
55754;PMS5003;41674;52.290;-1.474;2023-12-07T10:06:44;7;7;
55754;PMS5003;41674;52.290;-1.474;2023-12-07T10:09:13;12;11;
55754;PMS5003;41674;52.290;-1.474;2023-12-07T10:11:43;11;8;
55754;PMS5003;41674;52.290;-1.474;2023-12-07T10:14:12;11;9;
55754;PMS5003;41674;52.290;-1.474;2023-12-07T10:19:12;12;9;
55754;PMS5003;41674;52.290;-1.474;2023-12-07T10:21:41;15;13;
55754;PMS5003;41674;52.290;-1.474;2023-12-07T10:24:11;12;9;
55754;PMS5003;41674;52.290;-1.474;2023-12-07T10:26:40;11;10;
55754;PMS5003;41674;52.290;-1.474;2023-12-07T10:29:10;8;8;
55754;PMS5003;41674;52.290;-1.474;2023-12-07T10:31:39;9;7;
55754;PMS5003;41674;52.290;-1.474;2023-12-07T10:34:09;12;8;
55754;PMS5003;41674;52.290;-1.474;2023-12-07T10:36:39;14;14;
55754;PMS5003;41674;52.290;-1.474;2023-12-07T10:39:08;11;9;
55754;PMS5003;41674;52.290;-1.474;2023-12-07T10:41:37;9;9;
55754;PMS5003;41674;52.290;-1.474;2023-12-07T10:44:07;9;7;
55754;PMS5003;41674;52.290;-1.474;2023-12-07T10:46:36;12;8;
55754;PMS5003;41674;52.290;-1.474;2023-12-07T10:49:05;15;10;
55754;PMS5003;41674;52.290;-1.474;2023-12-07T10:51:37;8;7;
55754;PMS5003;41674;52.290;-1.474;2023-12-07T10:54:06;14;10;
55754;PMS5003;41674;52.290;-1.474;2023-12-07T10:56:36;12;12;
55754;PMS5003;41674;52.290;-1.474;2023-12-07T10:59:03;41;37;
55754;PMS5003;41674;52.290;-1.474;2023-12-07T11:01:33;13;9;
55754;PMS5003;41674;52.290;-1.474;2023-12-07T11:04:03;7;7;
55754;PMS5003;41674;52.290;-1.474;2023-12-07T11:06:32;16;15;
55754;PMS5003;41674;52.290;-1.474;2023-12-07T11:09:02;11;8;
55754;PMS5003;41674;52.290;-1.474;2023-12-07T11:11:34;15;14;
55754;PMS5003;41674;52.290;-1.474;2023-12-07T11:14:02;10;10;
55754;PMS5003;41674;52.290;-1.474;2023-12-07T11:16:31;11;9;
55754;PMS5003;41674;52.290;-1.474;2023-12-07T11:19:00;10;10;
55754;PMS5003;41674;52.290;-1.474;2023-12-07T11:21:29;14;12;
55754;PMS5003;41674;52.290;-1.474;2023-12-07T11:23:59;10;9;
55754;PMS5003;41674;52.290;-1.474;2023-12-07T11:26:28;17;14;
55754;PMS5003;41674;52.290;-1.474;2023-12-07T11:28:57;16;15;
55754;PMS5003;41674;52.290;-1.474;2023-12-07T11:31:27;18;15;
55754;PMS5003;41674;52.290;-1.474;2023-12-07T11:33:56;16;15;
55754;PMS5003;41674;52.290;-1.474;2023-12-07T11:36:25;20;18;
55754;PMS5003;41674;52.290;-1.474;2023-12-07T11:41:24;27;25;
55754;PMS5003;41674;52.290;-1.474;2023-12-07T11:43:53;12;12;
55754;PMS5003;41674;52.290;-1.474;2023-12-07T11:46:23;14;11;
55754;PMS5003;41674;52.290;-1.474;2023-12-07T11:48:52;8;8;
55754;PMS5003;41674;52.290;-1.474;2023-12-07T11:51:22;14;12;
55754;PMS5003;41674;52.290;-1.474;2023-12-07T11:53:52;8;8;
55754;PMS5003;41674;52.290;-1.474;2023-12-07T11:56:21;10;8;
55754;PMS5003;41674;52.290;-1.474;2023-12-07T11:58:51;12;9;
55754;PMS5003;41674;52.290;-1.474;2023-12-07T12:01:21;11;9;
55754;PMS5003;41674;52.290;-1.474;2023-12-07T12:03:50;11;10;
55754;PMS5003;41674;52.290;-1.474;2023-12-07T12:06:20;10;9;
55754;PMS5003;41674;52.290;-1.474;2023-12-07T12:08:49;9;6;
55754;PMS5003;41674;52.290;-1.474;2023-12-07T12:11:19;7;6;
55754;PMS5003;41674;52.290;-1.474;2023-12-07T12:13:49;10;7;
55754;PMS5003;41674;52.290;-1.474;2023-12-07T12:16:18;8;7;
55754;PMS5003;41674;52.290;-1.474;2023-12-07T12:18:48;12;11;
55754;PMS5003;41674;52.290;-1.474;2023-12-07T12:21:18;12;10;
55754;PMS5003;41674;52.290;-1.474;2023-12-07T12:23:47;9;9;
55754;PMS5003;41674;52.290;-1.474;2023-12-07T12:26:17;8;7;
55754;PMS5003;41674;52.290;-1.474;2023-12-07T12:28:47;8;6;
55754;PMS5003;41674;52.290;-1.474;2023-12-07T12:31:16;7;6;
55754;PMS5003;41674;52.290;-1.474;2023-12-07T12:33:47;6;6;
55754;PMS5003;41674;52.290;-1.474;2023-12-07T12:36:15;9;7;
55754;PMS5003;41674;52.290;-1.474;2023-12-07T12:38:46;8;6;
55754;PMS5003;41674;52.290;-1.474;2023-12-07T12:41:17;12;10;
55754;PMS5003;41674;52.290;-1.474;2023-12-07T12:43:44;9;9;
55754;PMS5003;41674;52.290;-1.474;2023-12-07T12:46:15;6;6;
55754;PMS5003;41674;52.290;-1.474;2023-12-07T12:51:13;6;4;
55754;PMS5003;41674;52.290;-1.474;2023-12-07T12:53:43;5;5;
55754;PMS5003;41674;52.290;-1.474;2023-12-07T12:56:12;7;7;
55754;PMS5003;41674;52.290;-1.474;2023-12-07T12:58:42;8;5;
55754;PMS5003;41674;52.290;-1.474;2023-12-07T13:01:11;13;10;
55754;PMS5003;41674;52.290;-1.474;2023-12-07T13:03:41;10;8;
55754;PMS5003;41674;52.290;-1.474;2023-12-07T13:06:10;8;7;
55754;PMS5003;41674;52.290;-1.474;2023-12-07T13:08:40;5;5;
55754;PMS5003;41674;52.290;-1.474;2023-12-07T13:11:14;6;5;
55754;PMS5003;41674;52.290;-1.474;2023-12-07T13:13:39;8;5;
55754;PMS5003;41674;52.290;-1.474;2023-12-07T13:16:09;11;9;
55754;PMS5003;41674;52.290;-1.474;2023-12-07T13:18:39;5;5;
55754;PMS5003;41674;52.290;-1.474;2023-12-07T13:21:08;6;4;
55754;PMS5003;41674;52.290;-1.474;2023-12-07T13:23:38;5;5;
55754;PMS5003;41674;52.290;-1.474;2023-12-07T13:26:07;5;5;
55754;PMS5003;41674;52.290;-1.474;2023-12-07T13:28:37;9;8;
55754;PMS5003;41674;52.290;-1.474;2023-12-07T13:31:06;8;8;
55754;PMS5003;41674;52.290;-1.474;2023-12-07T13:33:36;8;8;
55754;PMS5003;41674;52.290;-1.474;2023-12-07T13:36:06;6;6;
55754;PMS5003;41674;52.290;-1.474;2023-12-07T13:38:35;8;6;
55754;PMS5003;41674;52.290;-1.474;2023-12-07T13:41:05;8;7;
55754;PMS5003;41674;52.290;-1.474;2023-12-07T13:43:34;6;5;
55754;PMS5003;41674;52.290;-1.474;2023-12-07T13:46:04;6;6;
55754;PMS5003;41674;52.290;-1.474;2023-12-07T13:48:34;9;6;
55754;PMS5003;41674;52.290;-1.474;2023-12-07T13:51:03;6;6;
55754;PMS5003;41674;52.290;-1.474;2023-12-07T13:53:33;6;6;
55754;PMS5003;41674;52.290;-1.474;2023-12-07T13:56:03;8;8;
55754;PMS5003;41674;52.290;-1.474;2023-12-07T13:58:32;9;8;
55754;PMS5003;41674;52.290;-1.474;2023-12-07T14:01:02;10;9;
55754;PMS5003;41674;52.290;-1.474;2023-12-07T14:03:31;6;6;
55754;PMS5003;41674;52.290;-1.474;2023-12-07T14:06:01;6;5;
55754;PMS5003;41674;52.290;-1.474;2023-12-07T14:08:31;6;6;
55754;PMS5003;41674;52.290;-1.474;2023-12-07T14:11:00;12;9;
55754;PMS5003;41674;52.290;-1.474;2023-12-07T14:13:30;5;5;
55754;PMS5003;41674;52.290;-1.474;2023-12-07T14:15:59;5;5;
55754;PMS5003;41674;52.290;-1.474;2023-12-07T14:18:29;5;5;
55754;PMS5003;41674;52.290;-1.474;2023-12-07T14:20:59;6;5;
55754;PMS5003;41674;52.290;-1.474;2023-12-07T14:23:28;7;5;
55754;PMS5003;41674;52.290;-1.474;2023-12-07T14:25:58;7;6;
55754;PMS5003;41674;52.290;-1.474;2023-12-07T14:28:28;6;6;
55754;PMS5003;41674;52.290;-1.474;2023-12-07T14:30:57;5;5;
55754;PMS5003;41674;52.290;-1.474;2023-12-07T14:33:27;7;6;
55754;PMS5003;41674;52.290;-1.474;2023-12-07T14:35:57;6;6;
55754;PMS5003;41674;52.290;-1.474;2023-12-07T14:38:27;9;6;
55754;PMS5003;41674;52.290;-1.474;2023-12-07T14:40:56;7;7;
55754;PMS5003;41674;52.290;-1.474;2023-12-07T14:43:25;7;7;
55754;PMS5003;41674;52.290;-1.474;2023-12-07T14:45:55;5;5;
55754;PMS5003;41674;52.290;-1.474;2023-12-07T14:48:24;7;6;
55754;PMS5003;41674;52.290;-1.474;2023-12-07T14:50:54;9;8;
55754;PMS5003;41674;52.290;-1.474;2023-12-07T14:53:24;5;5;
55754;PMS5003;41674;52.290;-1.474;2023-12-07T14:55:53;6;5;
55754;PMS5003;41674;52.290;-1.474;2023-12-07T14:58:23;6;6;
55754;PMS5003;41674;52.290;-1.474;2023-12-07T15:00:53;8;6;
55754;PMS5003;41674;52.290;-1.474;2023-12-07T15:03:22;5;4;
55754;PMS5003;41674;52.290;-1.474;2023-12-07T15:05:52;6;6;
55754;PMS5003;41674;52.290;-1.474;2023-12-07T15:08:21;9;7;
55754;PMS5003;41674;52.290;-1.474;2023-12-07T15:10:51;4;4;
55754;PMS5003;41674;52.290;-1.474;2023-12-07T15:13:21;7;6;
55754;PMS5003;41674;52.290;-1.474;2023-12-07T15:15:50;5;3;
55754;PMS5003;41674;52.290;-1.474;2023-12-07T15:18:20;6;6;
55754;PMS5003;41674;52.290;-1.474;2023-12-07T15:20:50;4;4;
55754;PMS5003;41674;52.290;-1.474;2023-12-07T15:23:19;5;5;
55754;PMS5003;41674;52.290;-1.474;2023-12-07T15:25:49;5;5;
55754;PMS5003;41674;52.290;-1.474;2023-12-07T15:28:19;1;1;
55754;PMS5003;41674;52.290;-1.474;2023-12-07T15:30:48;4;4;
55754;PMS5003;41674;52.290;-1.474;2023-12-07T15:33:18;5;4;
55754;PMS5003;41674;52.290;-1.474;2023-12-07T15:35:48;3;3;
55754;PMS5003;41674;52.290;-1.474;2023-12-07T15:38:17;3;3;
55754;PMS5003;41674;52.290;-1.474;2023-12-07T15:40:48;6;5;
55754;PMS5003;41674;52.290;-1.474;2023-12-07T15:43:16;6;6;
55754;PMS5003;41674;52.290;-1.474;2023-12-07T15:45:46;3;3;
55754;PMS5003;41674;52.290;-1.474;2023-12-07T15:48:16;5;5;
55754;PMS5003;41674;52.290;-1.474;2023-12-07T15:50:46;4;4;
55754;PMS5003;41674;52.290;-1.474;2023-12-07T15:53:15;3;3;
55754;PMS5003;41674;52.290;-1.474;2023-12-07T15:55:45;5;5;
55754;PMS5003;41674;52.290;-1.474;2023-12-07T15:58:14;6;5;
55754;PMS5003;41674;52.290;-1.474;2023-12-07T16:00:44;6;6;
55754;PMS5003;41674;52.290;-1.474;2023-12-07T16:03:14;6;5;
55754;PMS5003;41674;52.290;-1.474;2023-12-07T16:05:43;8;8;
55754;PMS5003;41674;52.290;-1.474;2023-12-07T16:08:13;7;7;
55754;PMS5003;41674;52.290;-1.474;2023-12-07T16:10:43;5;5;
55754;PMS5003;41674;52.290;-1.474;2023-12-07T16:13:12;5;5;
55754;PMS5003;41674;52.290;-1.474;2023-12-07T16:15:42;9;6;
55754;PMS5003;41674;52.290;-1.474;2023-12-07T16:18:12;5;5;
55754;PMS5003;41674;52.290;-1.474;2023-12-07T16:20:41;8;6;
55754;PMS5003;41674;52.290;-1.474;2023-12-07T16:25:41;5;5;
55754;PMS5003;41674;52.290;-1.474;2023-12-07T16:28:10;8;7;
55754;PMS5003;41674;52.290;-1.474;2023-12-07T16:30:40;7;6;
55754;PMS5003;41674;52.290;-1.474;2023-12-07T16:33:09;5;5;
55754;PMS5003;41674;52.290;-1.474;2023-12-07T16:35:39;5;5;
55754;PMS5003;41674;52.290;-1.474;2023-12-07T16:40:38;4;4;